sensor_id;sensor_type;location;lat;lon;timestamp;P1;durP1;ratioP1;P2;durP2;ratioP2
12554;SDS011;6343;50.868;4.700;2024-01-15T00:00:25;21.40;;;11.07;;
12554;SDS011;6343;50.868;4.700;2024-01-15T00:02:51;21.43;;;10.87;;
12554;SDS011;6343;50.868;4.700;2024-01-15T00:05:17;25.23;;;11.70;;
12554;SDS011;6343;50.868;4.700;2024-01-15T00:07:43;21.10;;;11.30;;
12554;SDS011;6343;50.868;4.700;2024-01-15T00:10:09;22.30;;;11.47;;
12554;SDS011;6343;50.868;4.700;2024-01-15T00:12:35;18.77;;;10.50;;
12554;SDS011;6343;50.868;4.700;2024-01-15T00:15:01;22.57;;;11.07;;
12554;SDS011;6343;50.868;4.700;2024-01-15T00:17:27;17.33;;;9.83;;
12554;SDS011;6343;50.868;4.700;2024-01-15T00:19:53;24.03;;;11.27;;
12554;SDS011;6343;50.868;4.700;2024-01-15T00:22:19;20.67;;;11.27;;
12554;SDS011;6343;50.868;4.700;2024-01-15T00:24:46;21.20;;;10.90;;
12554;SDS011;6343;50.868;4.700;2024-01-15T00:27:12;24.77;;;10.93;;
12554;SDS011;6343;50.868;4.700;2024-01-15T00:29:38;24.77;;;11.13;;
12554;SDS011;6343;50.868;4.700;2024-01-15T00:32:04;21.77;;;11.10;;
12554;SDS011;6343;50.868;4.700;2024-01-15T00:34:30;23.30;;;10.67;;
12554;SDS011;6343;50.868;4.700;2024-01-15T00:36:56;18.17;;;9.87;;
12554;SDS011;6343;50.868;4.700;2024-01-15T00:39:22;21.43;;;11.03;;
12554;SDS011;6343;50.868;4.700;2024-01-15T00:41:48;23.10;;;10.50;;
12554;SDS011;6343;50.868;4.700;2024-01-15T00:44:14;20.73;;;9.83;;
12554;SDS011;6343;50.868;4.700;2024-01-15T00:46:44;22.07;;;11.10;;
12554;SDS011;6343;50.868;4.700;2024-01-15T00:49:11;21.30;;;10.10;;
12554;SDS011;6343;50.868;4.700;2024-01-15T00:51:37;18.53;;;9.90;;
12554;SDS011;6343;50.868;4.700;2024-01-15T00:54:03;22.10;;;10.17;;
12554;SDS011;6343;50.868;4.700;2024-01-15T00:56:29;19.53;;;9.80;;
12554;SDS011;6343;50.868;4.700;2024-01-15T00:58:55;22.47;;;9.50;;
12554;SDS011;6343;50.868;4.700;2024-01-15T01:01:21;21.63;;;10.13;;
12554;SDS011;6343;50.868;4.700;2024-01-15T01:03:47;18.07;;;9.20;;
12554;SDS011;6343;50.868;4.700;2024-01-15T01:06:13;18.10;;;9.50;;
12554;SDS011;6343;50.868;4.700;2024-01-15T01:08:39;16.00;;;8.43;;
12554;SDS011;6343;50.868;4.700;2024-01-15T01:11:06;18.23;;;8.50;;
12554;SDS011;6343;50.868;4.700;2024-01-15T01:13:32;16.70;;;8.93;;
12554;SDS011;6343;50.868;4.700;2024-01-15T01:15:58;14.93;;;8.70;;
12554;SDS011;6343;50.868;4.700;2024-01-15T01:18:24;17.63;;;8.67;;
12554;SDS011;6343;50.868;4.700;2024-01-15T01:20:50;20.23;;;9.10;;
12554;SDS011;6343;50.868;4.700;2024-01-15T01:23:16;15.27;;;7.80;;
12554;SDS011;6343;50.868;4.700;2024-01-15T01:25:42;17.70;;;9.00;;
12554;SDS011;6343;50.868;4.700;2024-01-15T01:28:08;16.93;;;8.17;;
12554;SDS011;6343;50.868;4.700;2024-01-15T01:30:34;19.00;;;7.97;;
12554;SDS011;6343;50.868;4.700;2024-01-15T01:33:01;11.83;;;6.63;;
12554;SDS011;6343;50.868;4.700;2024-01-15T01:35:27;10.60;;;6.67;;
12554;SDS011;6343;50.868;4.700;2024-01-15T01:37:53;11.53;;;7.43;;
12554;SDS011;6343;50.868;4.700;2024-01-15T01:40:19;17.17;;;7.27;;
12554;SDS011;6343;50.868;4.700;2024-01-15T01:42:45;13.47;;;7.03;;
12554;SDS011;6343;50.868;4.700;2024-01-15T01:45:11;12.10;;;6.80;;
12554;SDS011;6343;50.868;4.700;2024-01-15T01:47:37;14.70;;;6.13;;
12554;SDS011;6343;50.868;4.700;2024-01-15T01:50:04;14.50;;;7.10;;
12554;SDS011;6343;50.868;4.700;2024-01-15T01:52:30;11.37;;;6.60;;
12554;SDS011;6343;50.868;4.700;2024-01-15T01:54:57;9.73;;;6.27;;
12554;SDS011;6343;50.868;4.700;2024-01-15T01:57:23;16.80;;;6.57;;
12554;SDS011;6343;50.868;4.700;2024-01-15T01:59:49;9.63;;;6.27;;
12554;SDS011;6343;50.868;4.700;2024-01-15T02:02:16;12.97;;;6.63;;
12554;SDS011;6343;50.868;4.700;2024-01-15T02:04:42;10.77;;;5.50;;
12554;SDS011;6343;50.868;4.700;2024-01-15T02:07:09;11.13;;;6.30;;
12554;SDS011;6343;50.868;4.700;2024-01-15T02:09:35;9.60;;;5.60;;
12554;SDS011;6343;50.868;4.700;2024-01-15T02:12:01;12.57;;;5.90;;
12554;SDS011;6343;50.868;4.700;2024-01-15T02:14:27;8.73;;;5.23;;
12554;SDS011;6343;50.868;4.700;2024-01-15T02:16:53;12.53;;;5.50;;
12554;SDS011;6343;50.868;4.700;2024-01-15T02:19:19;8.60;;;5.80;;
12554;SDS011;6343;50.868;4.700;2024-01-15T02:21:45;9.00;;;5.47;;
12554;SDS011;6343;50.868;4.700;2024-01-15T02:24:11;10.27;;;5.27;;
12554;SDS011;6343;50.868;4.700;2024-01-15T02:26:38;12.90;;;5.40;;
12554;SDS011;6343;50.868;4.700;2024-01-15T02:29:05;14.17;;;5.73;;
12554;SDS011;6343;50.868;4.700;2024-01-15T02:31:34;9.90;;;6.13;;
12554;SDS011;6343;50.868;4.700;2024-01-15T02:34:00;8.60;;;5.37;;
12554;SDS011;6343;50.868;4.700;2024-01-15T02:36:26;11.03;;;5.77;;
12554;SDS011;6343;50.868;4.700;2024-01-15T02:38:52;8.47;;;5.40;;
12554;SDS011;6343;50.868;4.700;2024-01-15T02:41:18;11.83;;;5.40;;
12554;SDS011;6343;50.868;4.700;2024-01-15T02:43:44;8.67;;;5.23;;
12554;SDS011;6343;50.868;4.700;2024-01-15T02:46:10;9.57;;;5.10;;
12554;SDS011;6343;50.868;4.700;2024-01-15T02:48:36;11.90;;;4.97;;
12554;SDS011;6343;50.868;4.700;2024-01-15T02:51:02;8.93;;;4.63;;
12554;SDS011;6343;50.868;4.700;2024-01-15T02:53:28;7.40;;;4.67;;
12554;SDS011;6343;50.868;4.700;2024-01-15T02:55:55;7.60;;;4.60;;
12554;SDS011;6343;50.868;4.700;2024-01-15T02:58:21;7.53;;;4.57;;
12554;SDS011;6343;50.868;4.700;2024-01-15T03:00:47;8.17;;;4.87;;
12554;SDS011;6343;50.868;4.700;2024-01-15T03:03:13;10.13;;;4.50;;
12554;SDS011;6343;50.868;4.700;2024-01-15T03:05:39;10.00;;;4.77;;
12554;SDS011;6343;50.868;4.700;2024-01-15T03:08:05;12.93;;;4.77;;
12554;SDS011;6343;50.868;4.700;2024-01-15T03:10:31;7.13;;;4.20;;
12554;SDS011;6343;50.868;4.700;2024-01-15T03:12:57;6.77;;;3.80;;
12554;SDS011;6343;50.868;4.700;2024-01-15T03:15:23;11.43;;;4.60;;
12554;SDS011;6343;50.868;4.700;2024-01-15T03:17:50;6.80;;;4.10;;
12554;SDS011;6343;50.868;4.700;2024-01-15T03:20:16;7.93;;;4.50;;
12554;SDS011;6343;50.868;4.700;2024-01-15T03:22:42;7.70;;;4.10;;
12554;SDS011;6343;50.868;4.700;2024-01-15T03:25:08;6.67;;;3.97;;
12554;SDS011;6343;50.868;4.700;2024-01-15T03:27:34;7.93;;;3.60;;
12554;SDS011;6343;50.868;4.700;2024-01-15T03:30:00;5.50;;;3.13;;
12554;SDS011;6343;50.868;4.700;2024-01-15T03:32:27;8.53;;;4.40;;
12554;SDS011;6343;50.868;4.700;2024-01-15T03:34:53;6.07;;;3.90;;
12554;SDS011;6343;50.868;4.700;2024-01-15T03:37:19;4.87;;;3.47;;
12554;SDS011;6343;50.868;4.700;2024-01-15T03:39:45;7.70;;;4.20;;
12554;SDS011;6343;50.868;4.700;2024-01-15T03:42:11;6.93;;;3.67;;
12554;SDS011;6343;50.868;4.700;2024-01-15T03:44:39;6.23;;;3.87;;
12554;SDS011;6343;50.868;4.700;2024-01-15T03:47:05;6.90;;;4.10;;
12554;SDS011;6343;50.868;4.700;2024-01-15T03:49:31;6.10;;;4.00;;
12554;SDS011;6343;50.868;4.700;2024-01-15T03:51:57;8.57;;;4.57;;
12554;SDS011;6343;50.868;4.700;2024-01-15T03:54:23;9.47;;;4.77;;
12554;SDS011;6343;50.868;4.700;2024-01-15T03:56:49;9.17;;;5.53;;
12554;SDS011;6343;50.868;4.700;2024-01-15T03:59:15;8.60;;;5.30;;
12554;SDS011;6343;50.868;4.700;2024-01-15T04:01:47;11.70;;;5.73;;
12554;SDS011;6343;50.868;4.700;2024-01-15T04:04:14;8.53;;;5.20;;
12554;SDS011;6343;50.868;4.700;2024-01-15T04:06:40;10.40;;;5.77;;
12554;SDS011;6343;50.868;4.700;2024-01-15T04:09:06;13.00;;;6.50;;
12554;SDS011;6343;50.868;4.700;2024-01-15T04:11:32;12.07;;;5.83;;
12554;SDS011;6343;50.868;4.700;2024-01-15T04:13:58;11.13;;;6.53;;
12554;SDS011;6343;50.868;4.700;2024-01-15T04:16:24;12.90;;;6.57;;
12554;SDS011;6343;50.868;4.700;2024-01-15T04:18:50;13.83;;;6.53;;
12554;SDS011;6343;50.868;4.700;2024-01-15T04:21:19;12.63;;;7.07;;
12554;SDS011;6343;50.868;4.700;2024-01-15T04:23:45;16.83;;;8.07;;
12554;SDS011;6343;50.868;4.700;2024-01-15T04:26:11;14.07;;;7.23;;
12554;SDS011;6343;50.868;4.700;2024-01-15T04:28:37;17.67;;;7.97;;
12554;SDS011;6343;50.868;4.700;2024-01-15T04:31:03;15.90;;;8.83;;
12554;SDS011;6343;50.868;4.700;2024-01-15T04:33:29;13.97;;;8.40;;
12554;SDS011;6343;50.868;4.700;2024-01-15T04:35:56;15.57;;;8.07;;
12554;SDS011;6343;50.868;4.700;2024-01-15T04:38:22;16.90;;;8.30;;
12554;SDS011;6343;50.868;4.700;2024-01-15T04:40:48;16.47;;;8.93;;
12554;SDS011;6343;50.868;4.700;2024-01-15T04:43:14;16.13;;;8.37;;
12554;SDS011;6343;50.868;4.700;2024-01-15T04:45:40;14.53;;;8.90;;
12554;SDS011;6343;50.868;4.700;2024-01-15T04:48:06;16.83;;;8.57;;
12554;SDS011;6343;50.868;4.700;2024-01-15T04:50:32;15.07;;;8.63;;
12554;SDS011;6343;50.868;4.700;2024-01-15T04:52:58;19.73;;;9.53;;
12554;SDS011;6343;50.868;4.700;2024-01-15T04:55:24;17.03;;;8.63;;
12554;SDS011;6343;50.868;4.700;2024-01-15T04:57:50;14.27;;;8.00;;
12554;SDS011;6343;50.868;4.700;2024-01-15T05:00:16;17.07;;;8.80;;
12554;SDS011;6343;50.868;4.700;2024-01-15T05:02:43;14.93;;;8.47;;
12554;SDS011;6343;50.868;4.700;2024-01-15T05:05:09;16.13;;;9.10;;
12554;SDS011;6343;50.868;4.700;2024-01-15T05:07:35;14.30;;;8.53;;
12554;SDS011;6343;50.868;4.700;2024-01-15T05:10:01;15.87;;;9.10;;
12554;SDS011;6343;50.868;4.700;2024-01-15T05:12:28;15.40;;;8.10;;
12554;SDS011;6343;50.868;4.700;2024-01-15T05:14:54;15.53;;;8.20;;
12554;SDS011;6343;50.868;4.700;2024-01-15T05:17:20;14.80;;;8.50;;
12554;SDS011;6343;50.868;4.700;2024-01-15T05:19:46;15.47;;;8.43;;
12554;SDS011;6343;50.868;4.700;2024-01-15T05:22:12;18.73;;;8.27;;
12554;SDS011;6343;50.868;4.700;2024-01-15T05:24:39;16.07;;;8.33;;
12554;SDS011;6343;50.868;4.700;2024-01-15T05:27:05;12.07;;;7.43;;
12554;SDS011;6343;50.868;4.700;2024-01-15T05:29:31;13.47;;;7.90;;
12554;SDS011;6343;50.868;4.700;2024-01-15T05:31:57;15.50;;;7.40;;
12554;SDS011;6343;50.868;4.700;2024-01-15T05:34:23;13.30;;;6.77;;
12554;SDS011;6343;50.868;4.700;2024-01-15T05:36:49;11.50;;;6.37;;
12554;SDS011;6343;50.868;4.700;2024-01-15T05:39:15;13.60;;;7.30;;
12554;SDS011;6343;50.868;4.700;2024-01-15T05:41:41;11.70;;;6.50;;
12554;SDS011;6343;50.868;4.700;2024-01-15T05:44:07;18.97;;;7.50;;
12554;SDS011;6343;50.868;4.700;2024-01-15T05:46:33;19.23;;;9.57;;
12554;SDS011;6343;50.868;4.700;2024-01-15T05:48:59;11.50;;;6.60;;
12554;SDS011;6343;50.868;4.700;2024-01-15T05:51:25;11.53;;;6.03;;
12554;SDS011;6343;50.868;4.700;2024-01-15T05:53:51;11.77;;;5.97;;
12554;SDS011;6343;50.868;4.700;2024-01-15T05:56:17;12.60;;;6.00;;
12554;SDS011;6343;50.868;4.700;2024-01-15T05:58:43;12.80;;;6.07;;
12554;SDS011;6343;50.868;4.700;2024-01-15T06:01:10;12.40;;;5.60;;
12554;SDS011;6343;50.868;4.700;2024-01-15T06:03:36;11.33;;;4.97;;
12554;SDS011;6343;50.868;4.700;2024-01-15T06:06:02;8.23;;;4.23;;
12554;SDS011;6343;50.868;4.700;2024-01-15T06:08:28;11.07;;;5.27;;
12554;SDS011;6343;50.868;4.700;2024-01-15T06:10:55;12.63;;;4.43;;
12554;SDS011;6343;50.868;4.700;2024-01-15T06:13:21;9.80;;;4.13;;
12554;SDS011;6343;50.868;4.700;2024-01-15T06:15:47;6.00;;;3.53;;
12554;SDS011;6343;50.868;4.700;2024-01-15T06:18:13;8.07;;;3.40;;
12554;SDS011;6343;50.868;4.700;2024-01-15T06:20:40;8.53;;;3.80;;
12554;SDS011;6343;50.868;4.700;2024-01-15T06:23:06;5.53;;;3.20;;
12554;SDS011;6343;50.868;4.700;2024-01-15T06:25:32;5.77;;;3.07;;
12554;SDS011;6343;50.868;4.700;2024-01-15T06:27:58;7.83;;;2.97;;
12554;SDS011;6343;50.868;4.700;2024-01-15T06:30:24;8.87;;;3.70;;
12554;SDS011;6343;50.868;4.700;2024-01-15T06:32:50;5.43;;;2.80;;
12554;SDS011;6343;50.868;4.700;2024-01-15T06:35:16;8.70;;;2.77;;
12554;SDS011;6343;50.868;4.700;2024-01-15T06:37:42;4.83;;;2.80;;
12554;SDS011;6343;50.868;4.700;2024-01-15T06:40:09;5.07;;;2.80;;
12554;SDS011;6343;50.868;4.700;2024-01-15T06:42:38;5.07;;;2.70;;
12554;SDS011;6343;50.868;4.700;2024-01-15T06:45:04;7.60;;;2.70;;
12554;SDS011;6343;50.868;4.700;2024-01-15T06:47:31;6.43;;;2.80;;
12554;SDS011;6343;50.868;4.700;2024-01-15T06:49:57;6.67;;;2.90;;
12554;SDS011;6343;50.868;4.700;2024-01-15T06:52:24;4.67;;;2.33;;
12554;SDS011;6343;50.868;4.700;2024-01-15T06:54:50;3.20;;;2.40;;
12554;SDS011;6343;50.868;4.700;2024-01-15T06:57:16;8.57;;;2.53;;
12554;SDS011;6343;50.868;4.700;2024-01-15T06:59:42;10.93;;;3.03;;
12554;SDS011;6343;50.868;4.700;2024-01-15T07:02:08;2.93;;;1.90;;
12554;SDS011;6343;50.868;4.700;2024-01-15T07:04:34;4.23;;;2.37;;
12554;SDS011;6343;50.868;4.700;2024-01-15T07:07:00;3.43;;;2.00;;
12554;SDS011;6343;50.868;4.700;2024-01-15T07:09:26;7.53;;;1.97;;
12554;SDS011;6343;50.868;4.700;2024-01-15T07:11:52;3.40;;;1.90;;
12554;SDS011;6343;50.868;4.700;2024-01-15T07:14:18;8.50;;;2.37;;
12554;SDS011;6343;50.868;4.700;2024-01-15T07:16:44;3.50;;;1.77;;
12554;SDS011;6343;50.868;4.700;2024-01-15T07:19:11;2.70;;;1.47;;
12554;SDS011;6343;50.868;4.700;2024-01-15T07:21:37;5.80;;;1.83;;
12554;SDS011;6343;50.868;4.700;2024-01-15T07:24:05;17.77;;;4.53;;
12554;SDS011;6343;50.868;4.700;2024-01-15T07:26:31;5.93;;;2.10;;
12554;SDS011;6343;50.868;4.700;2024-01-15T07:28:57;5.33;;;2.40;;
12554;SDS011;6343;50.868;4.700;2024-01-15T07:31:23;7.57;;;2.20;;
12554;SDS011;6343;50.868;4.700;2024-01-15T07:33:49;3.20;;;1.90;;
12554;SDS011;6343;50.868;4.700;2024-01-15T07:36:15;4.47;;;2.00;;
12554;SDS011;6343;50.868;4.700;2024-01-15T07:38:41;4.67;;;2.00;;
12554;SDS011;6343;50.868;4.700;2024-01-15T07:41:08;7.13;;;2.40;;
12554;SDS011;6343;50.868;4.700;2024-01-15T07:43:34;6.40;;;2.50;;
12554;SDS011;6343;50.868;4.700;2024-01-15T07:46:00;9.67;;;2.73;;
12554;SDS011;6343;50.868;4.700;2024-01-15T07:48:27;8.03;;;2.30;;
12554;SDS011;6343;50.868;4.700;2024-01-15T07:50:53;5.07;;;2.70;;
12554;SDS011;6343;50.868;4.700;2024-01-15T07:53:19;4.80;;;2.30;;
12554;SDS011;6343;50.868;4.700;2024-01-15T07:55:45;4.53;;;2.57;;
12554;SDS011;6343;50.868;4.700;2024-01-15T07:58:11;6.97;;;2.77;;
12554;SDS011;6343;50.868;4.700;2024-01-15T08:00:38;8.00;;;2.47;;
12554;SDS011;6343;50.868;4.700;2024-01-15T08:03:04;7.23;;;2.50;;
12554;SDS011;6343;50.868;4.700;2024-01-15T08:05:30;8.50;;;2.93;;
12554;SDS011;6343;50.868;4.700;2024-01-15T08:07:57;8.97;;;2.87;;
12554;SDS011;6343;50.868;4.700;2024-01-15T08:10:23;4.13;;;2.40;;
12554;SDS011;6343;50.868;4.700;2024-01-15T08:12:49;4.53;;;2.60;;
12554;SDS011;6343;50.868;4.700;2024-01-15T08:15:15;3.50;;;2.47;;
12554;SDS011;6343;50.868;4.700;2024-01-15T08:17:42;4.20;;;2.47;;
12554;SDS011;6343;50.868;4.700;2024-01-15T08:20:08;4.67;;;3.10;;
12554;SDS011;6343;50.868;4.700;2024-01-15T08:22:35;6.80;;;3.10;;
12554;SDS011;6343;50.868;4.700;2024-01-15T08:25:02;9.60;;;3.50;;
12554;SDS011;6343;50.868;4.700;2024-01-15T08:27:28;6.00;;;2.90;;
12554;SDS011;6343;50.868;4.700;2024-01-15T08:29:55;4.33;;;3.13;;
12554;SDS011;6343;50.868;4.700;2024-01-15T08:32:21;5.33;;;3.43;;
12554;SDS011;6343;50.868;4.700;2024-01-15T08:34:47;8.20;;;3.27;;
12554;SDS011;6343;50.868;4.700;2024-01-15T08:37:17;6.10;;;3.67;;
12554;SDS011;6343;50.868;4.700;2024-01-15T08:39:44;5.97;;;2.90;;
12554;SDS011;6343;50.868;4.700;2024-01-15T08:42:10;12.30;;;3.43;;
12554;SDS011;6343;50.868;4.700;2024-01-15T08:44:36;8.53;;;3.50;;
12554;SDS011;6343;50.868;4.700;2024-01-15T08:47:04;4.90;;;3.20;;
12554;SDS011;6343;50.868;4.700;2024-01-15T08:49:30;6.57;;;3.47;;
12554;SDS011;6343;50.868;4.700;2024-01-15T08:51:57;6.70;;;3.23;;
12554;SDS011;6343;50.868;4.700;2024-01-15T08:54:23;10.27;;;3.20;;
12554;SDS011;6343;50.868;4.700;2024-01-15T08:56:49;10.53;;;3.27;;
12554;SDS011;6343;50.868;4.700;2024-01-15T08:59:15;9.93;;;2.70;;
12554;SDS011;6343;50.868;4.700;2024-01-15T09:01:41;5.70;;;2.70;;
12554;SDS011;6343;50.868;4.700;2024-01-15T09:04:08;7.00;;;2.30;;
12554;SDS011;6343;50.868;4.700;2024-01-15T09:06:34;6.97;;;2.10;;
12554;SDS011;6343;50.868;4.700;2024-01-15T09:09:00;10.50;;;2.63;;
12554;SDS011;6343;50.868;4.700;2024-01-15T09:11:26;5.47;;;2.13;;
12554;SDS011;6343;50.868;4.700;2024-01-15T09:13:52;7.57;;;2.03;;
12554;SDS011;6343;50.868;4.700;2024-01-15T09:16:18;7.17;;;2.00;;
12554;SDS011;6343;50.868;4.700;2024-01-15T09:18:44;4.80;;;2.37;;
12554;SDS011;6343;50.868;4.700;2024-01-15T09:21:12;11.73;;;2.37;;
12554;SDS011;6343;50.868;4.700;2024-01-15T09:23:38;7.00;;;2.10;;
12554;SDS011;6343;50.868;4.700;2024-01-15T09:26:04;6.20;;;2.10;;
12554;SDS011;6343;50.868;4.700;2024-01-15T09:28:30;7.37;;;2.23;;
12554;SDS011;6343;50.868;4.700;2024-01-15T09:30:56;11.63;;;3.30;;
12554;SDS011;6343;50.868;4.700;2024-01-15T09:33:22;4.87;;;2.00;;
12554;SDS011;6343;50.868;4.700;2024-01-15T09:35:48;7.33;;;2.50;;
12554;SDS011;6343;50.868;4.700;2024-01-15T09:38:14;7.03;;;2.23;;
12554;SDS011;6343;50.868;4.700;2024-01-15T09:40:40;9.73;;;2.90;;
12554;SDS011;6343;50.868;4.700;2024-01-15T09:43:08;7.40;;;2.23;;
12554;SDS011;6343;50.868;4.700;2024-01-15T09:45:35;5.27;;;2.30;;
12554;SDS011;6343;50.868;4.700;2024-01-15T09:48:01;10.43;;;2.27;;
12554;SDS011;6343;50.868;4.700;2024-01-15T09:50:28;5.43;;;1.50;;
12554;SDS011;6343;50.868;4.700;2024-01-15T09:52:54;7.70;;;1.70;;
12554;SDS011;6343;50.868;4.700;2024-01-15T09:55:22;4.10;;;2.30;;
12554;SDS011;6343;50.868;4.700;2024-01-15T09:57:48;9.23;;;2.17;;
12554;SDS011;6343;50.868;4.700;2024-01-15T10:00:18;8.77;;;2.00;;
12554;SDS011;6343;50.868;4.700;2024-01-15T10:02:45;8.27;;;2.33;;
12554;SDS011;6343;50.868;4.700;2024-01-15T10:05:11;6.47;;;1.50;;
12554;SDS011;6343;50.868;4.700;2024-01-15T10:07:40;5.63;;;1.63;;
12554;SDS011;6343;50.868;4.700;2024-01-15T10:10:06;9.90;;;1.80;;
12554;SDS011;6343;50.868;4.700;2024-01-15T10:14:47;3.30;;;1.67;;
12554;SDS011;6343;50.868;4.700;2024-01-15T10:17:14;6.87;;;1.50;;
12554;SDS011;6343;50.868;4.700;2024-01-15T10:19:40;9.97;;;1.80;;
12554;SDS011;6343;50.868;4.700;2024-01-15T10:22:07;8.40;;;1.70;;
12554;SDS011;6343;50.868;4.700;2024-01-15T10:24:35;9.80;;;2.23;;
12554;SDS011;6343;50.868;4.700;2024-01-15T10:27:07;3.97;;;1.37;;
12554;SDS011;6343;50.868;4.700;2024-01-15T10:29:34;8.27;;;2.00;;
12554;SDS011;6343;50.868;4.700;2024-01-15T10:32:00;6.20;;;1.90;;
12554;SDS011;6343;50.868;4.700;2024-01-15T10:34:26;6.23;;;1.57;;
12554;SDS011;6343;50.868;4.700;2024-01-15T10:36:52;10.03;;;1.60;;
12554;SDS011;6343;50.868;4.700;2024-01-15T10:39:23;6.00;;;1.97;;
12554;SDS011;6343;50.868;4.700;2024-01-15T10:41:50;2.93;;;1.50;;
12554;SDS011;6343;50.868;4.700;2024-01-15T10:44:17;6.40;;;1.77;;
12554;SDS011;6343;50.868;4.700;2024-01-15T10:46:43;7.33;;;1.40;;
12554;SDS011;6343;50.868;4.700;2024-01-15T10:49:10;6.27;;;1.67;;
12554;SDS011;6343;50.868;4.700;2024-01-15T10:51:37;6.70;;;1.70;;
12554;SDS011;6343;50.868;4.700;2024-01-15T10:54:03;10.20;;;1.90;;
12554;SDS011;6343;50.868;4.700;2024-01-15T10:56:31;5.33;;;2.00;;
12554;SDS011;6343;50.868;4.700;2024-01-15T10:58:58;5.43;;;1.73;;
12554;SDS011;6343;50.868;4.700;2024-01-15T11:01:25;8.30;;;2.10;;
12554;SDS011;6343;50.868;4.700;2024-01-15T11:03:51;4.73;;;1.70;;
12554;SDS011;6343;50.868;4.700;2024-01-15T11:06:17;5.67;;;1.60;;
12554;SDS011;6343;50.868;4.700;2024-01-15T11:08:50;7.23;;;1.70;;
12554;SDS011;6343;50.868;4.700;2024-01-15T11:11:16;8.40;;;2.30;;
12554;SDS011;6343;50.868;4.700;2024-01-15T11:13:43;7.63;;;2.03;;
12554;SDS011;6343;50.868;4.700;2024-01-15T11:16:10;9.80;;;2.43;;
12554;SDS011;6343;50.868;4.700;2024-01-15T11:23:54;8.13;;;2.00;;
12554;SDS011;6343;50.868;4.700;2024-01-15T11:29:03;9.63;;;1.80;;
12554;SDS011;6343;50.868;4.700;2024-01-15T11:31:57;6.30;;;1.93;;
12554;SDS011;6343;50.868;4.700;2024-01-15T11:34:16;5.93;;;1.77;;
12554;SDS011;6343;50.868;4.700;2024-01-15T11:41:56;3.20;;;2.03;;
12554;SDS011;6343;50.868;4.700;2024-01-15T11:44:22;3.93;;;1.30;;
12554;SDS011;6343;50.868;4.700;2024-01-15T11:46:59;3.43;;;1.73;;
12554;SDS011;6343;50.868;4.700;2024-01-15T11:51:53;8.03;;;1.50;;
12554;SDS011;6343;50.868;4.700;2024-01-15T11:54:21;8.00;;;1.87;;
12554;SDS011;6343;50.868;4.700;2024-01-15T11:56:49;3.57;;;1.63;;
12554;SDS011;6343;50.868;4.700;2024-01-15T11:59:15;10.50;;;1.60;;
12554;SDS011;6343;50.868;4.700;2024-01-15T12:01:45;8.40;;;1.50;;
12554;SDS011;6343;50.868;4.700;2024-01-15T12:04:11;6.87;;;2.03;;
12554;SDS011;6343;50.868;4.700;2024-01-15T12:06:38;5.33;;;1.70;;
12554;SDS011;6343;50.868;4.700;2024-01-15T12:09:07;5.17;;;1.63;;
12554;SDS011;6343;50.868;4.700;2024-01-15T12:11:34;5.73;;;1.70;;
12554;SDS011;6343;50.868;4.700;2024-01-15T12:14:02;4.47;;;1.87;;
12554;SDS011;6343;50.868;4.700;2024-01-15T12:16:28;7.47;;;1.50;;
12554;SDS011;6343;50.868;4.700;2024-01-15T12:18:54;5.60;;;1.23;;
12554;SDS011;6343;50.868;4.700;2024-01-15T12:21:20;6.77;;;1.60;;
12554;SDS011;6343;50.868;4.700;2024-01-15T12:23:46;11.10;;;1.90;;
12554;SDS011;6343;50.868;4.700;2024-01-15T12:26:13;6.27;;;1.57;;
12554;SDS011;6343;50.868;4.700;2024-01-15T12:28:39;6.43;;;1.40;;
12554;SDS011;6343;50.868;4.700;2024-01-15T12:31:05;2.63;;;1.30;;
12554;SDS011;6343;50.868;4.700;2024-01-15T12:33:32;4.97;;;1.60;;
12554;SDS011;6343;50.868;4.700;2024-01-15T12:35:59;5.53;;;1.40;;
12554;SDS011;6343;50.868;4.700;2024-01-15T12:38:25;11.13;;;1.93;;
12554;SDS011;6343;50.868;4.700;2024-01-15T12:40:51;4.60;;;1.57;;
12554;SDS011;6343;50.868;4.700;2024-01-15T12:43:17;11.40;;;2.03;;
12554;SDS011;6343;50.868;4.700;2024-01-15T12:45:43;6.20;;;1.90;;
12554;SDS011;6343;50.868;4.700;2024-01-15T12:48:10;7.07;;;2.03;;
12554;SDS011;6343;50.868;4.700;2024-01-15T12:50:36;6.70;;;1.90;;
12554;SDS011;6343;50.868;4.700;2024-01-15T12:53:02;8.37;;;1.90;;
12554;SDS011;6343;50.868;4.700;2024-01-15T12:55:29;5.20;;;2.20;;
12554;SDS011;6343;50.868;4.700;2024-01-15T12:57:55;6.40;;;2.47;;
12554;SDS011;6343;50.868;4.700;2024-01-15T13:00:21;10.57;;;1.80;;
12554;SDS011;6343;50.868;4.700;2024-01-15T13:02:47;4.90;;;1.50;;
12554;SDS011;6343;50.868;4.700;2024-01-15T13:07:30;8.03;;;1.90;;
12554;SDS011;6343;50.868;4.700;2024-01-15T13:09:56;6.20;;;1.50;;
12554;SDS011;6343;50.868;4.700;2024-01-15T13:12:22;7.37;;;1.90;;
12554;SDS011;6343;50.868;4.700;2024-01-15T13:14:48;5.67;;;1.80;;
12554;SDS011;6343;50.868;4.700;2024-01-15T13:17:14;7.10;;;2.60;;
12554;SDS011;6343;50.868;4.700;2024-01-15T13:19:40;12.73;;;3.67;;
12554;SDS011;6343;50.868;4.700;2024-01-15T13:22:06;3.00;;;1.20;;
12554;SDS011;6343;50.868;4.700;2024-01-15T13:24:34;3.00;;;1.23;;
12554;SDS011;6343;50.868;4.700;2024-01-15T13:27:01;6.27;;;1.33;;
12554;SDS011;6343;50.868;4.700;2024-01-15T13:29:27;1.23;;;0.90;;
12554;SDS011;6343;50.868;4.700;2024-01-15T13:31:54;4.53;;;1.27;;
12554;SDS011;6343;50.868;4.700;2024-01-15T13:34:20;2.10;;;1.00;;
12554;SDS011;6343;50.868;4.700;2024-01-15T13:36:46;3.27;;;1.33;;
12554;SDS011;6343;50.868;4.700;2024-01-15T13:39:12;2.30;;;0.70;;
12554;SDS011;6343;50.868;4.700;2024-01-15T13:41:38;2.03;;;1.00;;
12554;SDS011;6343;50.868;4.700;2024-01-15T13:44:04;2.90;;;0.90;;
12554;SDS011;6343;50.868;4.700;2024-01-15T13:46:30;3.33;;;0.80;;
12554;SDS011;6343;50.868;4.700;2024-01-15T13:48:57;2.80;;;1.00;;
12554;SDS011;6343;50.868;4.700;2024-01-15T13:51:23;5.33;;;1.27;;
12554;SDS011;6343;50.868;4.700;2024-01-15T13:53:49;2.20;;;1.17;;
12554;SDS011;6343;50.868;4.700;2024-01-15T13:56:15;2.17;;;1.17;;
12554;SDS011;6343;50.868;4.700;2024-01-15T13:58:41;1.97;;;0.97;;
12554;SDS011;6343;50.868;4.700;2024-01-15T14:01:08;2.33;;;0.80;;
12554;SDS011;6343;50.868;4.700;2024-01-15T14:03:34;1.17;;;0.80;;
12554;SDS011;6343;50.868;4.700;2024-01-15T14:06:00;3.33;;;0.90;;
12554;SDS011;6343;50.868;4.700;2024-01-15T14:08:34;2.20;;;1.20;;
12554;SDS011;6343;50.868;4.700;2024-01-15T14:11:00;3.00;;;0.90;;
12554;SDS011;6343;50.868;4.700;2024-01-15T14:13:26;2.17;;;0.80;;
12554;SDS011;6343;50.868;4.700;2024-01-15T14:15:53;2.87;;;1.10;;
12554;SDS011;6343;50.868;4.700;2024-01-15T14:18:19;2.83;;;0.97;;
12554;SDS011;6343;50.868;4.700;2024-01-15T14:20:45;3.17;;;0.90;;
12554;SDS011;6343;50.868;4.700;2024-01-15T14:23:11;2.97;;;1.20;;
12554;SDS011;6343;50.868;4.700;2024-01-15T14:25:37;3.87;;;1.10;;
12554;SDS011;6343;50.868;4.700;2024-01-15T14:28:04;3.07;;;1.13;;
12554;SDS011;6343;50.868;4.700;2024-01-15T14:30:30;2.07;;;1.30;;
12554;SDS011;6343;50.868;4.700;2024-01-15T14:32:57;3.57;;;1.20;;
12554;SDS011;6343;50.868;4.700;2024-01-15T14:35:23;2.80;;;0.80;;
12554;SDS011;6343;50.868;4.700;2024-01-15T14:37:49;2.90;;;1.27;;
12554;SDS011;6343;50.868;4.700;2024-01-15T14:40:15;2.93;;;0.90;;
12554;SDS011;6343;50.868;4.700;2024-01-15T14:42:41;7.13;;;1.10;;
12554;SDS011;6343;50.868;4.700;2024-01-15T14:45:07;8.73;;;1.93;;
12554;SDS011;6343;50.868;4.700;2024-01-15T14:47:40;1.63;;;1.00;;
12554;SDS011;6343;50.868;4.700;2024-01-15T14:50:07;3.60;;;1.30;;
12554;SDS011;6343;50.868;4.700;2024-01-15T14:52:33;265.70;;;21.20;;
12554;SDS011;6343;50.868;4.700;2024-01-15T14:55:00;16.77;;;2.37;;
12554;SDS011;6343;50.868;4.700;2024-01-15T14:57:26;94.80;;;8.50;;
12554;SDS011;6343;50.868;4.700;2024-01-15T14:59:53;6.00;;;2.40;;
12554;SDS011;6343;50.868;4.700;2024-01-15T15:02:19;3.13;;;1.90;;
12554;SDS011;6343;50.868;4.700;2024-01-15T15:04:45;29.40;;;3.80;;
12554;SDS011;6343;50.868;4.700;2024-01-15T15:07:11;2.23;;;1.60;;
12554;SDS011;6343;50.868;4.700;2024-01-15T15:09:38;5.73;;;1.93;;